Time;durP1;ratioP1;P1;durP2;ratioP2;P2;SDS_P1;SDS_P2;PMS_P1;PMS_P2;Temp;Humidity;BMP_temperature;BMP_pressure;BME280_temperature;BME280_humidity;BME280_pressure;Samples;Min_cycle;Max_cycle;Signal;HPM_P1;HPM_P2
2023/08/18 00:02:23;;;;;;;11.35;6.20;;;18.60;99.90;;;;;;5055461;28;20032;-70
2023/08/18 00:04:49;;;;;;;15.93;7.07;;;18.60;99.90;;;;;;5055242;28;20083;-70
2023/08/18 00:07:15;;;;;;;11.38;5.90;;;18.60;99.90;;;;;;5055635;28;20025;-70
2023/08/18 00:09:43;;;;;;;12.90;6.50;;;18.60;99.90;;;;;;5055263;28;20398;-70
2023/08/18 00:12:09;;;;;;;16.17;6.82;;;18.60;99.90;;;;;;5056103;28;20021;-70
2023/08/18 00:14:35;;;;;;;14.02;6.53;;;18.60;99.90;;;;;;5055546;28;20461;-70
2023/08/18 00:17:00;;;;;;;16.65;6.82;;;18.60;99.90;;;;;;5055156;28;20017;-70
2023/08/18 00:19:26;;;;;;;11.68;6.22;;;18.70;99.90;;;;;;5054711;28;20491;-70
2023/08/18 00:21:52;;;;;;;12.43;6.13;;;18.70;99.90;;;;;;5055359;28;20075;-70
2023/08/18 00:24:17;;;;;;;10.63;6.15;;;18.70;99.90;;;;;;5054990;28;20021;-70
2023/08/18 00:26:45;;;;;;;11.55;5.95;;;18.60;99.90;;;;;;5055483;28;20021;-70
2023/08/18 00:29:10;;;;;;;12.02;5.90;;;18.60;99.90;;;;;;5054895;28;20438;-70
2023/08/18 00:31:36;;;;;;;12.82;5.90;;;18.50;99.90;;;;;;5054821;28;20092;-70
2023/08/18 00:34:02;;;;;;;14.10;5.82;;;18.50;99.90;;;;;;5054889;28;20025;-70
2023/08/18 00:36:28;;;;;;;11.60;5.93;;;18.50;99.90;;;;;;5054808;28;20154;-70
2023/08/18 00:38:53;;;;;;;13.98;5.63;;;18.60;99.90;;;;;;5054704;28;20045;-70
2023/08/18 00:41:19;;;;;;;12.00;5.43;;;18.60;99.90;;;;;;5054370;28;20017;-70
2023/08/18 00:43:44;;;;;;;13.13;5.30;;;18.60;99.90;;;;;;5055303;28;20017;-70
2023/08/18 00:46:10;;;;;;;9.38;5.00;;;18.70;99.90;;;;;;5054773;28;20040;-70
2023/08/18 00:48:39;;;;;;;10.00;5.47;;;18.70;99.90;;;;;;5054179;28;20049;-70
2023/08/18 00:51:05;;;;;;;12.30;5.72;;;18.80;99.90;;;;;;5054018;28;20315;-70
2023/08/18 00:53:32;;;;;;;11.93;5.15;;;18.80;99.90;;;;;;5054773;28;20017;-70
2023/08/18 00:55:57;;;;;;;11.18;5.20;;;18.90;99.90;;;;;;5054405;28;20028;-69
2023/08/18 00:58:23;;;;;;;10.73;4.63;;;18.90;99.90;;;;;;5054397;28;20028;-71
2023/08/18 01:00:49;;;;;;;9.88;4.80;;;18.90;99.90;;;;;;5054627;28;20422;-70
2023/08/18 01:03:16;;;;;;;9.02;4.07;;;19.00;99.90;;;;;;5053019;28;20025;-70
2023/08/18 01:05:42;;;;;;;9.40;4.82;;;19.00;99.90;;;;;;5054328;28;20063;-71
2023/08/18 01:08:08;;;;;;;11.73;5.10;;;19.00;99.90;;;;;;5054169;28;20044;-70
2023/08/18 01:10:45;;;;;;;8.77;4.40;;;19.00;99.90;;;;;;5053806;28;20032;-70
2023/08/18 01:13:27;;;;;;;7.63;4.45;;;19.00;99.90;;;;;;5054619;28;20408;-69
2023/08/18 01:15:56;;;;;;;10.93;4.90;;;19.10;99.90;;;;;;5054413;28;20025;-70
2023/08/18 01:18:22;;;;;;;8.00;4.47;;;19.00;99.90;;;;;;5053768;28;20025;-69
2023/08/18 01:20:52;;;;;;;8.07;4.75;;;19.00;99.90;;;;;;5053850;28;20255;-70
2023/08/18 01:23:18;;;;;;;8.15;4.70;;;18.90;99.90;;;;;;5053958;28;20445;-70
2023/08/18 01:25:44;;;;;;;10.60;5.05;;;18.80;99.90;;;;;;5054050;28;20052;-69
2023/08/18 01:28:10;;;;;;;13.88;4.45;;;18.70;99.90;;;;;;5054081;28;20396;-70
2023/08/18 01:30:41;;;;;;;10.55;5.30;;;18.60;99.90;;;;;;5053179;28;20112;-70
2023/08/18 01:33:16;;;;;;;9.23;4.55;;;18.60;99.90;;;;;;5054296;28;20412;-70
2023/08/18 01:35:44;;;;;;;12.30;4.72;;;18.50;99.90;;;;;;5053807;28;20028;-70
2023/08/18 01:38:12;;;;;;;12.48;4.53;;;18.50;99.90;;;;;;5053661;28;20449;-69
2023/08/18 01:40:39;;;;;;;9.15;4.60;;;18.50;99.90;;;;;;5053560;28;20021;-70
2023/08/18 01:43:04;;;;;;;10.13;4.93;;;18.50;99.90;;;;;;5053690;28;20029;-70
2023/08/18 01:45:31;;;;;;;9.27;4.15;;;18.40;99.90;;;;;;5053559;28;20036;-70
2023/08/18 01:47:57;;;;;;;7.30;4.25;;;18.40;99.90;;;;;;5052476;28;20045;-70
2023/08/18 01:50:22;;;;;;;7.03;4.93;;;18.40;99.90;;;;;;5053109;28;20095;-70
2023/08/18 01:52:48;;;;;;;11.20;4.53;;;18.50;99.90;;;;;;5054058;28;20017;-70
2023/08/18 01:55:14;;;;;;;7.72;4.00;;;18.50;99.90;;;;;;5053493;28;20059;-70
2023/08/18 01:57:39;;;;;;;6.93;3.92;;;18.60;99.90;;;;;;5053413;28;20025;-70
2023/08/18 02:00:06;;;;;;;11.77;4.05;;;18.70;99.90;;;;;;5053446;28;20021;-70
2023/08/18 02:02:31;;;;;;;7.95;4.22;;;18.70;99.90;;;;;;5054131;28;20029;-70
2023/08/18 02:04:57;;;;;;;5.60;3.80;;;18.70;99.90;;;;;;5053359;28;20036;-70
2023/08/18 02:07:23;;;;;;;7.22;4.03;;;18.70;99.90;;;;;;5053693;28;20104;-70
2023/08/18 02:09:48;;;;;;;10.45;4.38;;;18.70;99.90;;;;;;5053615;28;20028;-70
2023/08/18 02:12:14;;;;;;;7.90;4.10;;;18.70;99.90;;;;;;5053587;28;20021;-69
2023/08/18 02:14:40;;;;;;;7.63;4.00;;;18.70;99.90;;;;;;5052046;28;20025;-70
2023/08/18 02:17:05;;;;;;;9.45;3.78;;;18.80;99.90;;;;;;5053214;28;20365;-70
2023/08/18 02:19:31;;;;;;;7.13;3.80;;;18.70;99.90;;;;;;5052892;28;20104;-70
2023/08/18 02:21:57;;;;;;;8.85;3.70;;;18.70;99.90;;;;;;5053476;28;20083;-70
2023/08/18 02:24:22;;;;;;;7.28;3.78;;;18.70;99.90;;;;;;5053369;28;20447;-69
2023/08/18 02:26:48;;;;;;;6.53;4.03;;;18.70;99.90;;;;;;5052869;28;20100;-70
2023/08/18 02:29:14;;;;;;;6.25;3.50;;;18.70;99.90;;;;;;5053166;28;20024;-70
2023/08/18 02:31:39;;;;;;;5.47;3.60;;;18.80;99.90;;;;;;5052867;28;20100;-71
2023/08/18 02:34:05;;;;;;;7.72;3.40;;;18.80;99.90;;;;;;5053140;28;20082;-71
2023/08/18 02:36:31;;;;;;;6.10;3.38;;;18.80;99.90;;;;;;5053379;28;20066;-70
2023/08/18 02:38:56;;;;;;;9.45;3.95;;;18.90;99.90;;;;;;5053016;28;20044;-71
2023/08/18 02:41:23;;;;;;;7.65;3.75;;;18.90;99.90;;;;;;5054594;28;20458;-70
2023/08/18 02:43:49;;;;;;;7.43;3.75;;;19.00;99.90;;;;;;5057644;28;20029;-70
2023/08/18 02:46:16;;;;;;;7.40;3.35;;;19.00;99.90;;;;;;5056796;28;20037;-70
2023/08/18 02:48:41;;;;;;;7.63;3.83;;;19.00;99.90;;;;;;5056784;28;20071;-70
2023/08/18 02:51:08;;;;;;;7.07;3.80;;;19.00;99.90;;;;;;5056789;28;20493;-70
2023/08/18 02:53:35;;;;;;;8.23;3.75;;;19.00;99.90;;;;;;5056804;28;20031;-70
2023/08/18 02:56:00;;;;;;;8.45;3.65;;;19.00;99.90;;;;;;5056523;28;20048;-71
2023/08/18 02:58:27;;;;;;;5.38;3.50;;;19.00;99.90;;;;;;5056997;28;20475;-70
2023/08/18 03:01:00;;;;;;;6.63;3.38;;;19.00;99.90;;;;;;5057083;28;20047;-70
2023/08/18 03:03:26;;;;;;;6.05;3.38;;;19.00;99.90;;;;;;5056914;28;20033;-70
2023/08/18 03:05:52;;;;;;;7.53;3.70;;;19.10;99.90;;;;;;5056588;28;20124;-70
2023/08/18 03:08:18;;;;;;;10.38;4.25;;;19.10;99.90;;;;;;5056743;28;20361;-70
2023/08/18 03:10:44;;;;;;;10.27;3.85;;;18.90;99.90;;;;;;5056271;28;20398;-70
2023/08/18 03:13:09;;;;;;;9.02;3.40;;;18.70;99.90;;;;;;5056668;28;20101;-70
2023/08/18 03:15:41;;;;;;;9.20;4.10;;;18.50;99.90;;;;;;5056064;28;20028;-70
2023/08/18 03:18:07;;;;;;;9.15;3.55;;;18.30;99.90;;;;;;5056361;28;20037;-70
2023/08/18 03:20:33;;;;;;;8.23;4.38;;;18.20;99.90;;;;;;5056195;28;20029;-70
2023/08/18 03:22:58;;;;;;;7.95;3.80;;;18.10;99.90;;;;;;5057010;28;20071;-70
2023/08/18 03:25:24;;;;;;;7.20;4.07;;;18.10;99.90;;;;;;5056561;28;20056;-70
2023/08/18 03:27:50;;;;;;;9.88;3.88;;;18.10;99.90;;;;;;5056656;28;20025;-70
2023/08/18 03:30:16;;;;;;;8.63;4.00;;;17.90;99.90;;;;;;5056309;28;20059;-69
2023/08/18 03:32:42;;;;;;;7.65;3.75;;;17.80;99.90;;;;;;5056111;28;20021;-70
2023/08/18 03:35:08;;;;;;;7.97;3.88;;;17.70;99.90;;;;;;5055951;28;20028;-71
2023/08/18 03:37:33;;;;;;;10.50;4.32;;;17.70;99.90;;;;;;5056258;28;20052;-70
2023/08/18 03:39:59;;;;;;;8.38;4.60;;;17.70;99.90;;;;;;5056196;28;20017;-71
2023/08/18 03:42:24;;;;;;;12.82;4.50;;;17.60;99.90;;;;;;5055806;28;20027;-70
2023/08/18 03:44:50;;;;;;;10.27;4.18;;;17.50;99.90;;;;;;5055660;28;20363;-70
2023/08/18 03:47:16;;;;;;;6.75;4.13;;;17.50;99.90;;;;;;5056105;28;20033;-70
2023/08/18 03:49:41;;;;;;;7.88;4.07;;;17.60;99.90;;;;;;5055303;28;20052;-70
2023/08/18 03:52:07;;;;;;;10.57;4.00;;;17.70;99.90;;;;;;5055378;28;20461;-70
2023/08/18 03:54:32;;;;;;;8.85;3.55;;;17.80;99.90;;;;;;5055770;28;20051;-70
2023/08/18 03:56:58;;;;;;;9.90;4.20;;;17.90;99.90;;;;;;5055834;28;20441;-69
2023/08/18 03:59:24;;;;;;;10.43;3.92;;;17.80;99.90;;;;;;5055456;28;20082;-69
2023/08/18 04:01:49;;;;;;;9.15;4.03;;;17.80;99.90;;;;;;5055628;28;20021;-68
2023/08/18 04:04:15;;;;;;;9.82;4.07;;;17.80;99.90;;;;;;5055895;28;20071;-69
2023/08/18 04:06:40;;;;;;;8.65;4.13;;;17.80;99.90;;;;;;5055317;28;20017;-69
2023/08/18 04:09:09;;;;;;;12.65;4.20;;;17.70;99.90;;;;;;5055297;28;20095;-68
2023/08/18 04:11:35;;;;;;;14.13;5.15;;;17.70;99.90;;;;;;5055023;28;20349;-69
2023/08/18 04:14:02;;;;;;;12.90;4.90;;;17.40;99.90;;;;;;5055250;28;20407;-68
2023/08/18 04:16:29;;;;;;;13.07;5.18;;;17.20;99.90;;;;;;5054953;28;20037;-68
2023/08/18 04:18:55;;;;;;;7.90;4.97;;;17.10;99.90;;;;;;5055209;28;20036;-68
2023/08/18 04:21:20;;;;;;;9.82;5.15;;;16.80;99.90;;;;;;5055035;28;20024;-67
2023/08/18 04:23:46;;;;;;;8.13;4.82;;;16.80;99.90;;;;;;5055031;28;20052;-68
2023/08/18 04:26:12;;;;;;;11.38;5.85;;;16.70;99.90;;;;;;5055168;28;20302;-69
2023/08/18 04:28:38;;;;;;;12.35;4.97;;;16.70;99.90;;;;;;5054945;28;20024;-69
2023/08/18 04:31:03;;;;;;;8.20;4.95;;;16.70;99.90;;;;;;5055198;28;20021;-69
2023/08/18 04:33:29;;;;;;;9.27;4.70;;;16.70;99.90;;;;;;5054826;28;20023;-68
2023/08/18 04:35:55;;;;;;;9.45;4.72;;;16.60;99.90;;;;;;5055098;28;20048;-68
2023/08/18 04:38:21;;;;;;;8.73;5.10;;;16.70;99.90;;;;;;5054843;28;20017;-67
2023/08/18 04:40:56;;;;;;;10.50;5.25;;;16.80;99.90;;;;;;5055398;28;20339;-69
2023/08/18 04:43:22;;;;;;;12.02;4.68;;;16.70;99.90;;;;;;5055349;28;20051;-67
2023/08/18 04:45:48;;;;;;;9.73;5.15;;;16.70;99.90;;;;;;5055045;28;20073;-67
2023/08/18 04:48:13;;;;;;;12.07;4.80;;;16.60;99.90;;;;;;5054489;28;20107;-69
2023/08/18 04:50:39;;;;;;;13.02;5.13;;;16.50;99.90;;;;;;5054827;28;20063;-69
2023/08/18 04:53:05;;;;;;;10.63;4.93;;;16.50;99.90;;;;;;5054469;28;20013;-69
2023/08/18 04:55:33;;;;;;;8.65;5.25;;;16.60;99.90;;;;;;5054465;28;20028;-69
2023/08/18 04:57:59;;;;;;;7.35;4.72;;;16.60;99.90;;;;;;5053141;28;20017;-69
2023/08/18 05:00:24;;;;;;;9.82;5.30;;;16.60;99.90;;;;;;5054326;28;20021;-69
2023/08/18 05:02:51;;;;;;;8.43;4.82;;;16.60;99.90;;;;;;5054330;28;20067;-69
2023/08/18 05:05:17;;;;;;;11.93;4.88;;;16.60;99.90;;;;;;5053290;28;20033;-68
2023/08/18 05:07:43;;;;;;;11.13;4.65;;;16.60;99.90;;;;;;5054531;28;20335;-68
2023/08/18 05:10:08;;;;;;;11.15;4.82;;;16.60;99.90;;;;;;5054488;28;20025;-68
2023/08/18 05:12:34;;;;;;;10.07;4.80;;;16.70;99.90;;;;;;5054092;28;20037;-68
2023/08/18 05:15:00;;;;;;;10.77;4.75;;;16.70;99.90;;;;;;5054082;28;20031;-69
2023/08/18 05:17:25;;;;;;;11.15;5.07;;;16.80;99.90;;;;;;5054188;28;20029;-69
2023/08/18 05:19:51;;;;;;;12.13;5.10;;;16.80;99.90;;;;;;5054006;28;20507;-69
2023/08/18 05:22:16;;;;;;;12.45;4.57;;;16.80;99.90;;;;;;5054686;28;20048;-68
2023/08/18 05:24:42;;;;;;;11.35;5.10;;;16.90;99.90;;;;;;5053815;28;20445;-69
2023/08/18 05:27:08;;;;;;;7.88;4.20;;;17.00;99.90;;;;;;5053878;28;20071;-69
2023/08/18 05:29:33;;;;;;;8.55;4.38;;;17.20;99.90;;;;;;5053615;28;20500;-68
2023/08/18 05:31:59;;;;;;;10.20;4.75;;;17.40;99.90;;;;;;5054132;28;20021;-69
2023/08/18 05:34:24;;;;;;;7.32;4.07;;;17.50;99.90;;;;;;5053715;28;20024;-68
2023/08/18 05:36:51;;;;;;;6.88;4.10;;;17.60;99.90;;;;;;5053759;28;20438;-70
2023/08/18 05:39:17;;;;;;;8.13;4.00;;;17.70;99.90;;;;;;5053609;28;20071;-69
2023/08/18 05:41:44;;;;;;;5.07;3.85;;;17.90;99.90;;;;;;5053597;28;20049;-68
2023/08/18 05:44:09;;;;;;;10.20;3.53;;;18.10;99.90;;;;;;5053845;28;20032;-68
2023/08/18 05:46:35;;;;;;;7.57;3.25;;;18.30;99.90;;;;;;5053491;28;20029;-68
2023/08/18 05:49:01;;;;;;;8.18;3.20;;;18.50;99.90;;;;;;5053395;28;20052;-67
2023/08/18 05:51:26;;;;;;;8.30;3.55;;;18.70;99.90;;;;;;5053403;28;20127;-67
2023/08/18 05:53:52;;;;;;;5.32;3.38;;;18.90;99.90;;;;;;5053448;28;20155;-67
2023/08/18 05:56:17;;;;;;;11.18;3.45;;;19.00;99.90;;;;;;5052240;28;20082;-68
2023/08/18 05:58:43;;;;;;;5.50;2.90;;;19.10;99.90;;;;;;5053408;28;20029;-67
2023/08/18 06:01:09;;;;;;;7.57;3.00;;;19.20;99.90;;;;;;5053946;28;20044;-68
2023/08/18 06:03:34;;;;;;;5.25;3.13;;;19.40;99.90;;;;;;5053579;28;20092;-68
2023/08/18 06:06:00;;;;;;;5.80;2.90;;;19.50;99.90;;;;;;5053021;28;20082;-68
2023/08/18 06:08:26;;;;;;;7.63;3.50;;;19.70;99.90;;;;;;5054069;28;20133;-68
2023/08/18 06:10:52;;;;;;;5.38;3.10;;;19.90;99.90;;;;;;5053319;28;20082;-68
2023/08/18 06:13:18;;;;;;;6.85;3.17;;;20.10;99.90;;;;;;5053304;28;20017;-68
2023/08/18 06:15:44;;;;;;;7.00;3.30;;;20.20;99.90;;;;;;5054176;28;20032;-68
2023/08/18 06:18:09;;;;;;;7.72;3.10;;;20.20;99.90;;;;;;5057554;28;20057;-69
2023/08/18 06:20:35;;;;;;;9.48;3.10;;;20.30;99.90;;;;;;5057383;28;20021;-67
2023/08/18 06:23:01;;;;;;;5.72;3.33;;;20.40;99.90;;;;;;5057282;28;20066;-66
2023/08/18 06:25:26;;;;;;;6.68;2.67;;;20.40;99.90;;;;;;5056856;28;20476;-68
2023/08/18 06:27:52;;;;;;;5.93;3.25;;;20.40;99.90;;;;;;5057482;28;20021;-68
2023/08/18 06:30:18;;;;;;;7.07;3.40;;;20.40;99.90;;;;;;5057142;28;20048;-68
2023/08/18 06:32:45;;;;;;;17.92;3.10;;;20.50;99.90;;;;;;5057678;28;20106;-68
2023/08/18 06:35:10;;;;;;;7.30;3.38;;;20.60;99.90;;;;;;5057104;28;20029;-68
2023/08/18 06:37:36;;;;;;;5.43;2.90;;;20.70;99.90;;;;;;5056773;28;20029;-67
2023/08/18 06:40:02;;;;;;;5.70;2.97;;;20.80;99.90;;;;;;5055875;28;20020;-70
2023/08/18 06:42:28;;;;;;;8.73;3.10;;;21.00;99.90;;;;;;5057009;28;20044;-69
2023/08/18 06:44:53;;;;;;;6.22;2.83;;;21.00;99.90;;;;;;5056984;28;20051;-69
2023/08/18 06:47:19;;;;;;;7.47;3.00;;;21.10;99.90;;;;;;5056867;28;20147;-68
2023/08/18 06:49:45;;;;;;;8.52;3.30;;;21.20;99.90;;;;;;5056593;28;20049;-69
2023/08/18 06:52:11;;;;;;;5.63;2.88;;;21.40;99.90;;;;;;5056924;28;20020;-69
2023/08/18 06:54:36;;;;;;;5.47;3.00;;;21.50;99.90;;;;;;5057109;28;20423;-69
2023/08/18 06:57:02;;;;;;;7.00;3.30;;;21.60;99.90;;;;;;5056755;28;20032;-69
2023/08/18 06:59:28;;;;;;;7.20;3.47;;;21.80;99.90;;;;;;5057039;28;20323;-69
2023/08/18 07:01:54;;;;;;;9.93;3.53;;;21.80;99.90;;;;;;5057043;28;20095;-69
2023/08/18 07:04:19;;;;;;;4.82;3.30;;;22.00;99.90;;;;;;5056530;28;20025;-67
2023/08/18 07:06:45;;;;;;;6.57;3.30;;;22.10;99.90;;;;;;5056658;28;20021;-68
2023/08/18 07:09:12;;;;;;;5.05;2.80;;;22.20;99.90;;;;;;5056649;28;20044;-68
2023/08/18 07:11:37;;;;;;;5.63;3.08;;;22.30;99.90;;;;;;5056489;28;20029;-67
2023/08/18 07:14:03;;;;;;;3.92;2.70;;;22.50;99.90;;;;;;5056529;28;20017;-68
2023/08/18 07:16:30;;;;;;;6.10;3.30;;;22.50;99.90;;;;;;5056362;28;20025;-70
2023/08/18 07:18:55;;;;;;;6.22;2.60;;;22.60;99.90;;;;;;5056733;28;20032;-67
2023/08/18 07:21:21;;;;;;;7.22;2.75;;;22.70;99.90;;;;;;5056691;28;20025;-65
2023/08/18 07:23:47;;;;;;;6.30;2.97;;;22.70;99.90;;;;;;5056276;28;20025;-66
2023/08/18 07:26:12;;;;;;;7.15;2.78;;;22.80;99.90;;;;;;5056184;28;20369;-67
2023/08/18 07:28:38;;;;;;;3.92;2.40;;;23.00;99.90;;;;;;5055795;28;20028;-67
2023/08/18 07:31:04;;;;;;;5.40;2.60;;;23.10;99.90;;;;;;5056094;28;20408;-67
2023/08/18 07:33:30;;;;;;;4.18;2.75;;;23.20;99.90;;;;;;5056061;28;20036;-68
2023/08/18 07:35:57;;;;;;;3.78;2.42;;;23.30;99.90;;;;;;5056834;28;20044;-69
2023/08/18 07:38:23;;;;;;;9.88;2.60;;;23.30;99.90;;;;;;5055717;28;20136;-68
2023/08/18 07:40:48;;;;;;;7.65;2.90;;;23.40;99.90;;;;;;5055677;28;20033;-68
2023/08/18 07:43:14;;;;;;;6.35;2.35;;;23.50;99.90;;;;;;5055634;28;20048;-65
2023/08/18 07:45:40;;;;;;;8.88;2.63;;;23.60;99.90;;;;;;5055838;28;20091;-69
2023/08/18 07:48:06;;;;;;;7.93;2.45;;;23.70;99.90;;;;;;5055836;28;20458;-67
2023/08/18 07:50:32;;;;;;;5.00;2.58;;;23.90;99.90;;;;;;5055914;28;20355;-70
2023/08/18 07:52:58;;;;;;;6.00;2.58;;;24.00;99.90;;;;;;5055962;28;20025;-69
2023/08/18 07:55:24;;;;;;;4.43;2.33;;;24.00;99.90;;;;;;5055881;28;20111;-70
2023/08/18 07:57:50;;;;;;;4.32;2.50;;;24.20;99.90;;;;;;5055859;28;20060;-68
2023/08/18 08:00:20;;;;;;;4.82;2.58;;;24.30;99.90;;;;;;5055943;28;20025;-68
2023/08/18 08:02:47;;;;;;;6.22;2.05;;;24.50;99.90;;;;;;5056157;28;20033;-69
2023/08/18 08:05:13;;;;;;;5.25;2.40;;;24.60;99.90;;;;;;5055416;28;20029;-70
2023/08/18 08:07:40;;;;;;;3.80;2.05;;;24.70;99.90;;;;;;5055475;28;20021;-67
2023/08/18 08:10:12;;;;;;;3.40;2.40;;;24.80;99.90;;;;;;5055399;28;20350;-66
2023/08/18 08:12:39;;;;;;;2.58;2.03;;;24.80;99.90;;;;;;5055328;28;20055;-67
2023/08/18 08:15:07;;;;;;;3.70;2.13;;;24.80;99.90;;;;;;5055245;28;20104;-67
2023/08/18 08:17:33;;;;;;;6.70;2.03;;;24.90;99.90;;;;;;5055201;28;20084;-69
2023/08/18 08:20:07;;;;;;;4.47;1.85;;;25.00;99.90;;;;;;5055158;28;20059;-68
2023/08/18 08:22:34;;;;;;;2.95;1.80;;;25.00;99.90;;;;;;5055232;28;20139;-68
2023/08/18 08:24:59;;;;;;;3.80;1.92;;;25.10;99.90;;;;;;5055061;28;20478;-69
2023/08/18 08:27:25;;;;;;;2.72;1.90;;;25.30;99.90;;;;;;5054547;28;20025;-68
2023/08/18 08:29:51;;;;;;;6.00;2.03;;;25.40;99.90;;;;;;5054802;28;20025;-68
2023/08/18 08:32:18;;;;;;;3.55;2.00;;;25.60;99.90;;;;;;5054966;28;20032;-67
2023/08/18 08:34:51;;;;;;;3.65;2.03;;;25.70;99.90;;;;;;5054886;28;20025;-67
2023/08/18 08:37:17;;;;;;;4.45;1.77;;;25.80;99.90;;;;;;5055297;28;20032;-69
2023/08/18 08:39:44;;;;;;;2.85;1.77;;;25.80;99.90;;;;;;5055040;28;20051;-68
2023/08/18 08:42:10;;;;;;;4.95;1.92;;;25.80;99.90;;;;;;5054567;28;20028;-67
2023/08/18 08:44:37;;;;;;;4.80;1.90;;;25.80;99.90;;;;;;5054680;28;20025;-69
2023/08/18 08:47:03;;;;;;;5.10;1.98;;;25.90;99.90;;;;;;5054843;28;20434;-69
2023/08/18 08:49:34;;;;;;;4.50;1.85;;;26.00;99.90;;;;;;5054352;28;20520;-68
2023/08/18 08:52:05;;;;;;;3.58;2.20;;;26.10;99.90;;;;;;5054663;28;20020;-69
2023/08/18 08:54:49;;;;;;;2.45;1.80;;;26.00;99.90;;;;;;5054865;28;20070;-68
2023/08/18 08:57:19;;;;;;;4.05;2.35;;;26.00;99.90;;;;;;5054531;28;20445;-68
2023/08/18 08:59:45;;;;;;;2.50;2.00;;;26.20;99.90;;;;;;5054765;28;20461;-69
2023/08/18 09:02:10;;;;;;;3.75;1.83;;;26.20;99.90;;;;;;5054493;28;20035;-68
2023/08/18 09:04:38;;;;;;;2.78;1.80;;;26.30;99.90;;;;;;5054302;28;20021;-69
2023/08/18 09:07:04;;;;;;;2.75;1.95;;;26.40;99.90;;;;;;5054836;28;20029;-68
2023/08/18 09:09:30;;;;;;;2.65;1.98;;;26.50;99.90;;;;;;5054235;28;20021;-69
2023/08/18 09:12:06;;;;;;;2.55;2.03;;;26.60;99.90;;;;;;5054329;28;20074;-69
2023/08/18 09:14:34;;;;;;;3.22;2.00;;;26.50;99.90;;;;;;5054826;28;20024;-69
2023/08/18 09:17:03;;;;;;;3.80;2.35;;;26.50;99.90;;;;;;5054115;28;20017;-69
2023/08/18 09:19:32;;;;;;;2.78;1.85;;;26.60;99.90;;;;;;5054029;28;20469;-68
2023/08/18 09:21:59;;;;;;;5.50;2.30;;;26.80;99.90;;;;;;5054049;28;20017;-69
2023/08/18 09:24:26;;;;;;;4.20;2.20;;;26.80;99.90;;;;;;5054208;28;20096;-68
2023/08/18 09:26:52;;;;;;;2.42;1.95;;;26.80;99.90;;;;;;5053989;28;20339;-68
2023/08/18 09:29:18;;;;;;;2.67;2.00;;;26.80;99.90;;;;;;5054518;28;20032;-68
2023/08/18 09:31:45;;;;;;;3.10;2.10;;;26.90;99.90;;;;;;5053711;28;20462;-66
2023/08/18 09:34:20;;;;;;;2.35;1.83;;;27.10;99.90;;;;;;5053914;28;20020;-68
2023/08/18 09:37:07;;;;;;;5.38;2.42;;;27.00;99.90;;;;;;5053665;28;20032;-68
2023/08/18 09:39:33;;;;;;;4.97;2.30;;;27.10;99.90;;;;;;5054098;28;20021;-67
2023/08/18 09:41:59;;;;;;;3.67;2.00;;;27.30;99.90;;;;;;5053827;28;20027;-68
2023/08/18 09:44:26;;;;;;;4.55;2.05;;;27.50;99.90;;;;;;5053700;28;20013;-67
2023/08/18 09:46:56;;;;;;;2.88;2.10;;;27.80;99.90;;;;;;5053337;28;20029;-68
2023/08/18 09:49:25;;;;;;;5.18;2.00;;;27.80;99.90;;;;;;5053572;28;20072;-69
2023/08/18 09:51:55;;;;;;;4.07;2.13;;;27.80;99.90;;;;;;5052936;28;20424;-69
2023/08/18 09:54:25;;;;;;;3.63;2.45;;;27.90;99.90;;;;;;5053589;28;20013;-70
2023/08/18 09:56:59;;;;;;;3.33;2.10;;;28.00;99.90;;;;;;5053833;28;20016;-68
2023/08/18 09:59:43;;;;;;;2.22;1.80;;;28.00;99.90;;;;;;5053882;28;20013;-68
2023/08/18 10:02:17;;;;;;;4.18;2.22;;;28.20;99.90;;;;;;5053510;28;20449;-69
2023/08/18 10:04:44;;;;;;;5.55;2.00;;;28.20;99.90;;;;;;5053754;28;20013;-69
2023/08/18 10:07:10;;;;;;;5.00;2.30;;;28.30;99.90;;;;;;5053434;28;20024;-67
2023/08/18 10:09:36;;;;;;;4.28;2.30;;;28.50;99.90;;;;;;5053440;28;20021;-68
2023/08/18 10:12:02;;;;;;;4.47;2.60;;;28.60;99.90;;;;;;5053146;28;20025;-70
2023/08/18 10:14:30;;;;;;;3.10;2.30;;;28.60;99.90;;;;;;5053363;28;20017;-69
2023/08/18 10:16:58;;;;;;;4.93;2.42;;;28.70;99.90;;;;;;5053251;28;20029;-69
2023/08/18 10:19:45;;;;;;;3.38;2.30;;;28.80;99.90;;;;;;5053736;28;20100;-67
2023/08/18 10:22:11;;;;;;;3.42;2.30;;;28.90;99.90;;;;;;5053383;28;20032;-68
2023/08/18 10:24:37;;;;;;;3.33;2.47;;;29.10;99.90;;;;;;5053049;28;20044;-69
2023/08/18 10:27:06;;;;;;;3.40;2.42;;;28.90;99.90;;;;;;5052109;28;20029;-69
2023/08/18 10:29:34;;;;;;;4.53;2.25;;;29.00;99.90;;;;;;5053838;28;20056;-68
2023/08/18 10:32:08;;;;;;;4.57;2.20;;;29.20;99.90;;;;;;5053562;28;20017;-68
2023/08/18 10:34:35;;;;;;;5.88;2.35;;;29.30;99.90;;;;;;5053367;28;20041;-68
2023/08/18 10:37:03;;;;;;;5.97;2.15;;;29.50;99.90;;;;;;5053442;28;20445;-68
2023/08/18 10:39:36;;;;;;;4.25;2.33;;;29.60;99.90;;;;;;5053204;28;20071;-71
2023/08/18 10:42:07;;;;;;;3.75;2.38;;;29.50;99.90;;;;;;5053738;28;20029;-69
2023/08/18 10:44:33;;;;;;;3.13;2.45;;;29.30;99.90;;;;;;5053017;28;20036;-69
2023/08/18 10:47:02;;;;;;;2.97;2.30;;;29.50;99.90;;;;;;5053110;28;20021;-69
2023/08/18 10:49:29;;;;;;;5.40;2.20;;;29.70;99.90;;;;;;5052853;28;20053;-69
2023/08/18 10:51:54;;;;;;;5.97;2.53;;;29.60;99.50;;;;;;5053834;28;20186;-70
2023/08/18 10:54:22;;;;;;;3.47;2.45;;;29.80;99.90;;;;;;5053047;28;20025;-69
2023/08/18 10:56:48;;;;;;;4.97;2.30;;;29.80;99.10;;;;;;5052948;28;20460;-69
2023/08/18 10:59:14;;;;;;;3.53;2.45;;;29.90;99.30;;;;;;5053322;28;20025;-69
2023/08/18 11:01:42;;;;;;;6.13;2.50;;;30.10;99.90;;;;;;5053757;28;20025;-69
2023/08/18 11:04:09;;;;;;;4.53;2.70;;;30.20;99.80;;;;;;5056744;28;20103;-69
2023/08/18 11:06:34;;;;;;;2.42;2.05;;;30.20;98.10;;;;;;5056564;28;20060;-69
2023/08/18 11:09:04;;;;;;;11.90;3.28;;;30.40;99.30;;;;;;5056322;28;20029;-69
2023/08/18 11:11:29;;;;;;;4.77;2.83;;;30.50;98.50;;;;;;5056531;28;20017;-69
2023/08/18 11:13:55;;;;;;;5.05;2.78;;;30.50;97.40;;;;;;5056595;28;20170;-69
2023/08/18 11:16:23;;;;;;;3.22;2.40;;;30.50;98.30;;;;;;5056743;28;20033;-69
2023/08/18 11:18:51;;;;;;;3.25;2.40;;;30.40;96.70;;;;;;5056751;28;20021;-69
2023/08/18 11:21:17;;;;;;;5.57;2.25;;;30.40;97.10;;;;;;5055709;28;20052;-69
2023/08/18 11:23:43;;;;;;;3.13;2.20;;;30.50;98.00;;;;;;5056329;28;20438;-69
2023/08/18 11:26:09;;;;;;;3.90;2.45;;;30.60;97.10;;;;;;5056286;28;20037;-69
2023/08/18 11:28:35;;;;;;;5.18;2.40;;;30.70;96.40;;;;;;5055588;28;20438;-70
2023/08/18 11:31:05;;;;;;;4.30;2.58;;;30.80;96.70;;;;;;5055070;28;20036;-70
2023/08/18 11:33:31;;;;;;;3.28;2.30;;;31.10;96.60;;;;;;5056358;28;20524;-70
2023/08/18 11:35:57;;;;;;;6.35;2.25;;;30.80;94.60;;;;;;5056001;28;20035;-70
2023/08/18 11:38:23;;;;;;;2.78;2.47;;;30.80;94.80;;;;;;5056388;28;20103;-70
2023/08/18 11:40:48;;;;;;;5.45;2.28;;;30.80;93.90;;;;;;5056309;28;20025;-69
2023/08/18 11:43:15;;;;;;;3.95;2.15;;;30.70;94.40;;;;;;5056523;28;20032;-69
2023/08/18 11:45:41;;;;;;;3.28;2.10;;;30.90;94.60;;;;;;5055888;28;20070;-69
2023/08/18 11:48:13;;;;;;;6.43;2.40;;;31.20;93.50;;;;;;5056041;28;20028;-70
2023/08/18 11:50:42;;;;;;;7.47;2.40;;;31.10;92.90;;;;;;5056234;28;20036;-69
2023/08/18 11:53:09;;;;;;;4.15;2.20;;;31.10;94.00;;;;;;5055715;28;20032;-69
2023/08/18 11:55:38;;;;;;;4.45;2.55;;;30.90;94.80;;;;;;5055797;28;20083;-71
2023/08/18 11:58:10;;;;;;;9.30;2.40;;;30.70;94.00;;;;;;5055884;28;20021;-70
2023/08/18 12:00:38;;;;;;;3.67;2.55;;;30.80;93.10;;;;;;5055510;28;20036;-70
2023/08/18 12:03:18;;;;;;;5.13;2.67;;;30.90;93.10;;;;;;5055548;28;20358;-69
2023/08/18 12:05:44;;;;;;;4.55;2.30;;;31.10;92.60;;;;;;5055746;28;20120;-70
2023/08/18 12:08:10;;;;;;;4.47;2.30;;;31.30;94.50;;;;;;5054259;28;20525;-70
2023/08/18 12:10:36;;;;;;;3.53;2.30;;;31.40;93.00;;;;;;5055999;28;20029;-69
2023/08/18 12:13:02;;;;;;;3.00;2.40;;;31.60;94.70;;;;;;5055769;28;20013;-70
2023/08/18 12:15:27;;;;;;;3.72;2.75;;;31.60;93.10;;;;;;5055377;28;20068;-70
2023/08/18 12:17:54;;;;;;;2.88;2.20;;;31.80;93.40;;;;;;5055478;28;20021;-70
2023/08/18 12:20:20;;;;;;;3.22;2.00;;;31.70;92.60;;;;;;5055358;28;20369;-69
2023/08/18 12:22:50;;;;;;;2.60;2.22;;;31.70;92.10;;;;;;5055281;28;20357;-69
2023/08/18 12:25:20;;;;;;;3.83;2.40;;;31.90;92.20;;;;;;5055177;28;20091;-69
2023/08/18 12:27:46;;;;;;;3.28;2.10;;;31.90;91.50;;;;;;5055797;28;20373;-70
2023/08/18 12:30:14;;;;;;;3.03;2.20;;;31.80;91.00;;;;;;5055720;28;20025;-69
2023/08/18 12:32:44;;;;;;;2.88;2.33;;;31.80;92.40;;;;;;5055676;28;20017;-68
2023/08/18 12:35:13;;;;;;;3.60;2.28;;;31.80;92.20;;;;;;5055349;28;20488;-70
2023/08/18 12:37:40;;;;;;;3.53;2.40;;;31.90;92.30;;;;;;5055348;28;20023;-69
2023/08/18 12:40:10;;;;;;;3.90;2.20;;;31.90;91.50;;;;;;5055259;28;20024;-69
2023/08/18 12:42:36;;;;;;;10.75;2.63;;;31.90;91.20;;;;;;5054914;28;20035;-69
2023/08/18 12:45:02;;;;;;;3.30;2.28;;;31.80;91.50;;;;;;5054826;28;20469;-69